Time;durP1;ratioP1;P1;durP2;ratioP2;P2;SDS_P1;SDS_P2;PMS_P1;PMS_P2;Temp;Humidity;BMP_temperature;BMP_pressure;BME280_temperature;BME280_humidity;BME280_pressure;Samples;Min_cycle;Max_cycle;Signal;HPM_P1;HPM_P2
2022/02/26 00:00:54;;;;;;;6.47;1.80;;;4.00;99.90;;;;;;4996517;28;20034;-79
2022/02/26 00:03:20;;;;;;;3.00;1.73;;;4.10;99.90;;;;;;4979506;28;20030;-81
2022/02/26 00:05:47;;;;;;;3.97;2.20;;;4.00;99.90;;;;;;4980880;28;20031;-78
2022/02/26 00:08:13;;;;;;;4.47;2.00;;;4.00;99.90;;;;;;4979156;28;20026;-80
2022/02/26 00:10:39;;;;;;;6.10;2.07;;;3.90;99.90;;;;;;4996535;28;20096;-81
2022/02/26 00:13:04;;;;;;;3.83;1.73;;;3.90;99.90;;;;;;4979935;28;20387;-83
2022/02/26 00:15:30;;;;;;;5.80;2.00;;;3.80;99.90;;;;;;4997218;28;20022;-82
2022/02/26 00:17:56;;;;;;;4.03;1.80;;;3.80;99.90;;;;;;4979302;28;20426;-82
2022/02/26 00:20:21;;;;;;;3.10;1.90;;;3.80;99.90;;;;;;4979751;28;20026;-82
2022/02/26 00:22:47;;;;;;;5.63;2.10;;;3.80;99.90;;;;;;4979313;28;20460;-82
2022/02/26 00:25:13;;;;;;;2.73;1.90;;;3.90;99.90;;;;;;4979612;28;20391;-81
2022/02/26 00:27:38;;;;;;;6.43;2.40;;;3.90;99.90;;;;;;4979110;28;20054;-81
2022/02/26 00:30:05;;;;;;;9.30;2.23;;;3.90;99.90;;;;;;4996891;28;20053;-83
2022/02/26 00:32:31;;;;;;;3.53;2.30;;;3.80;99.90;;;;;;4996920;28;20023;-82
2022/02/26 00:34:57;;;;;;;6.10;2.37;;;3.80;99.90;;;;;;4996123;28;20050;-81
2022/02/26 00:37:22;;;;;;;4.37;1.80;;;3.80;99.90;;;;;;4979350;28;20077;-84
2022/02/26 00:39:48;;;;;;;4.77;2.27;;;3.90;99.90;;;;;;4978070;28;20084;-85
2022/02/26 00:42:14;;;;;;;5.57;2.43;;;3.90;99.90;;;;;;4979043;28;20026;-84
2022/02/26 00:44:40;;;;;;;5.97;2.73;;;3.90;99.90;;;;;;4995853;28;20440;-85
2022/02/26 00:47:07;;;;;;;4.73;2.20;;;3.90;99.90;;;;;;4994138;28;20034;-85
2022/02/26 00:49:47;;;;;;;5.20;2.70;;;3.90;99.90;;;;;;4990036;28;20040;-84
2022/02/26 00:52:15;;;;;;;3.93;2.40;;;3.90;99.90;;;;;;4999046;28;20036;-84
2022/02/26 00:54:41;;;;;;;5.27;2.50;;;3.90;99.90;;;;;;4998231;28;20048;-84
2022/02/26 00:57:07;;;;;;;4.37;2.30;;;3.80;99.90;;;;;;5015862;28;20053;-84
2022/02/26 00:59:32;;;;;;;6.47;2.30;;;3.80;99.90;;;;;;4998471;28;20057;-84
2022/02/26 01:01:58;;;;;;;4.43;2.30;;;3.90;99.90;;;;;;4998117;28;20030;-84
2022/02/26 01:04:25;;;;;;;3.57;2.30;;;3.90;99.90;;;;;;4998398;28;20076;-84
2022/02/26 01:06:51;;;;;;;4.30;2.73;;;3.90;99.90;;;;;;4997787;28;20120;-85
2022/02/26 01:09:17;;;;;;;3.93;2.33;;;3.90;99.90;;;;;;4998160;28;20145;-83
2022/02/26 01:11:43;;;;;;;5.10;2.13;;;3.90;99.90;;;;;;4997941;28;20443;-85
2022/02/26 01:14:09;;;;;;;5.03;2.03;;;3.90;99.90;;;;;;4998647;28;20076;-85
2022/02/26 01:16:35;;;;;;;3.93;2.40;;;4.00;99.90;;;;;;5015640;28;20101;-85
2022/02/26 01:19:02;;;;;;;6.27;2.23;;;4.00;99.90;;;;;;4997541;28;20041;-85
2022/02/26 01:21:28;;;;;;;5.37;2.90;;;4.00;99.90;;;;;;4998191;28;20022;-85
2022/02/26 01:23:53;;;;;;;4.93;2.10;;;4.00;99.90;;;;;;4997583;28;20360;-85
2022/02/26 01:26:20;;;;;;;5.00;2.50;;;4.00;99.90;;;;;;4998088;28;20025;-85
2022/02/26 01:28:46;;;;;;;3.63;2.30;;;4.00;99.90;;;;;;4997412;28;20105;-85
2022/02/26 01:31:12;;;;;;;5.07;2.33;;;4.00;99.90;;;;;;5014931;28;20034;-85
2022/02/26 01:33:38;;;;;;;5.03;2.33;;;4.00;99.90;;;;;;4997510;28;20033;-80
2022/02/26 01:36:04;;;;;;;9.63;2.70;;;4.00;99.90;;;;;;4997967;28;20022;-82
2022/02/26 01:38:30;;;;;;;3.87;2.17;;;3.90;99.90;;;;;;4997570;28;20029;-82
2022/02/26 01:40:56;;;;;;;3.23;2.00;;;3.90;99.90;;;;;;5014949;28;20057;-83
2022/02/26 01:43:22;;;;;;;4.73;2.40;;;3.90;99.90;;;;;;5014994;28;20026;-82
2022/02/26 01:45:48;;;;;;;5.13;2.30;;;3.90;99.90;;;;;;4997154;28;20026;-82
2022/02/26 01:48:13;;;;;;;4.00;2.27;;;4.00;99.90;;;;;;4997641;28;20093;-82
2022/02/26 01:50:39;;;;;;;7.50;2.90;;;4.00;99.90;;;;;;4997391;28;20033;-81
2022/02/26 01:53:05;;;;;;;6.27;2.77;;;4.10;99.90;;;;;;4997531;28;20117;-82
2022/02/26 01:55:31;;;;;;;6.33;2.60;;;4.00;99.90;;;;;;4997868;28;20033;-82
2022/02/26 01:57:57;;;;;;;5.27;2.63;;;4.00;99.90;;;;;;4997130;28;20026;-82
2022/02/26 02:00:23;;;;;;;6.77;2.70;;;4.00;99.90;;;;;;4997570;28;20040;-82
2022/02/26 02:02:49;;;;;;;4.80;2.67;;;4.00;99.90;;;;;;4997189;28;20029;-82
2022/02/26 02:05:15;;;;;;;8.57;3.00;;;3.90;99.90;;;;;;5014671;28;20066;-82
2022/02/26 02:07:41;;;;;;;4.73;2.80;;;4.00;99.90;;;;;;4996912;28;20120;-82
2022/02/26 02:10:07;;;;;;;7.30;3.50;;;4.00;99.90;;;;;;4997161;28;20038;-80
2022/02/26 02:12:34;;;;;;;5.83;3.00;;;3.90;99.90;;;;;;4997446;28;20054;-80
2022/02/26 02:14:59;;;;;;;7.17;2.70;;;3.90;99.90;;;;;;5014227;28;20048;-80
2022/02/26 02:17:25;;;;;;;6.60;3.00;;;3.90;99.90;;;;;;4997125;28;20473;-80
2022/02/26 02:19:51;;;;;;;5.27;3.30;;;3.90;99.90;;;;;;4996746;28;20533;-80
2022/02/26 02:22:18;;;;;;;5.70;3.30;;;4.00;99.90;;;;;;4997192;28;20056;-82
2022/02/26 02:24:44;;;;;;;7.17;3.23;;;4.00;99.90;;;;;;4996756;28;20060;-82
2022/02/26 02:27:11;;;;;;;5.40;3.40;;;4.00;99.90;;;;;;4997463;28;20033;-82
2022/02/26 02:29:37;;;;;;;7.50;2.90;;;3.90;99.90;;;;;;4997154;28;20635;-82
2022/02/26 02:32:03;;;;;;;7.50;3.50;;;3.90;99.90;;;;;;4996858;28;20053;-82
2022/02/26 02:34:28;;;;;;;6.13;3.47;;;3.80;99.90;;;;;;4997256;28;20033;-83
2022/02/26 02:36:54;;;;;;;8.73;3.33;;;3.90;99.90;;;;;;4996282;28;20057;-82
2022/02/26 02:39:20;;;;;;;5.43;3.10;;;3.80;99.90;;;;;;4996572;28;20053;-83
2022/02/26 02:41:46;;;;;;;4.93;3.27;;;3.80;99.90;;;;;;4996485;28;20026;-82
2022/02/26 02:44:13;;;;;;;6.00;3.30;;;3.70;99.90;;;;;;4997121;28;20026;-83
2022/02/26 02:46:40;;;;;;;5.67;3.83;;;3.70;99.90;;;;;;5014266;28;20026;-83
2022/02/26 02:49:06;;;;;;;7.37;3.57;;;3.70;99.90;;;;;;4995849;28;20069;-83
2022/02/26 02:51:32;;;;;;;5.67;3.30;;;3.60;99.90;;;;;;5014423;28;20057;-83
2022/02/26 02:53:57;;;;;;;5.40;3.13;;;3.50;99.90;;;;;;4996402;28;20026;-82
2022/02/26 02:56:23;;;;;;;6.17;3.57;;;3.60;99.90;;;;;;4997077;28;20026;-82
2022/02/26 02:58:49;;;;;;;8.73;3.97;;;3.50;99.90;;;;;;4996320;28;20109;-82
2022/02/26 03:01:14;;;;;;;5.80;3.37;;;3.50;99.90;;;;;;4996994;28;20026;-82
2022/02/26 03:03:40;;;;;;;9.57;3.93;;;3.50;99.90;;;;;;5000263;28;20025;-83
2022/02/26 03:06:06;;;;;;;7.47;3.50;;;3.50;99.90;;;;;;5000583;28;20029;-82
2022/02/26 03:08:32;;;;;;;4.93;3.10;;;3.50;99.90;;;;;;5000685;28;20056;-83
2022/02/26 03:10:58;;;;;;;7.07;3.40;;;3.50;99.90;;;;;;5000227;28;20037;-82
2022/02/26 03:13:26;;;;;;;6.27;3.10;;;3.60;99.90;;;;;;5000577;28;20116;-83
2022/02/26 03:15:53;;;;;;;6.30;3.47;;;3.60;99.90;;;;;;4999815;28;20026;-79
2022/02/26 03:18:21;;;;;;;7.23;3.90;;;3.50;99.90;;;;;;5000097;28;20033;-79
2022/02/26 03:20:47;;;;;;;9.03;4.07;;;3.50;99.90;;;;;;4999755;28;20052;-81
2022/02/26 03:23:13;;;;;;;8.30;3.80;;;3.50;99.90;;;;;;5018096;28;20102;-81
2022/02/26 03:25:39;;;;;;;6.13;3.60;;;3.40;99.90;;;;;;5017850;28;20030;-81
2022/02/26 03:28:05;;;;;;;5.60;3.73;;;3.40;99.90;;;;;;4999952;28;20192;-81
2022/02/26 03:30:31;;;;;;;8.53;4.13;;;3.40;99.90;;;;;;5000388;28;20037;-81
2022/02/26 03:32:57;;;;;;;8.63;4.13;;;3.40;99.90;;;;;;4999599;28;20036;-81
2022/02/26 03:35:23;;;;;;;11.20;4.33;;;3.40;99.90;;;;;;5000311;28;20121;-81
2022/02/26 03:37:48;;;;;;;9.73;4.57;;;3.30;99.90;;;;;;5016979;28;20036;-82
2022/02/26 03:40:14;;;;;;;11.93;4.70;;;3.30;99.90;;;;;;4999720;28;20486;-82
2022/02/26 03:42:40;;;;;;;9.70;4.47;;;3.30;99.90;;;;;;5017636;28;20022;-82
2022/02/26 03:45:08;;;;;;;10.23;4.70;;;3.30;99.90;;;;;;4999517;28;20033;-81
2022/02/26 03:47:34;;;;;;;10.57;4.93;;;3.30;99.90;;;;;;5017455;28;20030;-81
2022/02/26 03:49:59;;;;;;;11.27;5.10;;;3.30;99.90;;;;;;4999418;28;20045;-81
2022/02/26 03:52:25;;;;;;;9.77;4.67;;;3.30;99.90;;;;;;5017092;28;20031;-81
2022/02/26 03:54:51;;;;;;;7.20;4.17;;;3.20;99.90;;;;;;5016648;28;20062;-80
2022/02/26 03:57:17;;;;;;;7.03;4.43;;;3.30;99.90;;;;;;5016986;28;20034;-79
2022/02/26 03:59:43;;;;;;;9.30;4.77;;;3.30;99.90;;;;;;4999291;28;20034;-80
2022/02/26 04:02:08;;;;;;;9.70;4.90;;;3.30;99.90;;;;;;4999115;28;20120;-79
2022/02/26 04:04:36;;;;;;;12.97;5.30;;;3.30;99.90;;;;;;4999756;28;20026;-79
2022/02/26 04:07:03;;;;;;;12.50;5.23;;;3.30;99.90;;;;;;4998666;28;20045;-81
2022/02/26 04:09:29;;;;;;;15.10;5.73;;;3.20;99.90;;;;;;5017144;28;20042;-80
2022/02/26 04:11:55;;;;;;;9.57;5.13;;;3.30;99.90;;;;;;4999303;28;20103;-81
2022/02/26 04:14:21;;;;;;;13.43;5.40;;;3.20;99.90;;;;;;4998411;28;20026;-81
2022/02/26 04:16:46;;;;;;;9.23;4.80;;;3.20;99.90;;;;;;4999269;28;20076;-81
2022/02/26 04:19:12;;;;;;;11.17;5.47;;;3.10;99.90;;;;;;5016067;28;20065;-81
2022/02/26 04:21:39;;;;;;;9.87;5.00;;;3.10;99.90;;;;;;4998989;28;20030;-80
2022/02/26 04:24:05;;;;;;;9.03;5.23;;;3.10;99.90;;;;;;4998701;28;20030;-81
2022/02/26 04:26:31;;;;;;;9.53;5.70;;;3.00;99.90;;;;;;4998939;28;20030;-80
2022/02/26 04:28:57;;;;;;;12.93;5.43;;;3.00;99.90;;;;;;4998080;28;20030;-80
2022/02/26 04:31:23;;;;;;;8.83;5.27;;;3.10;99.90;;;;;;4999031;28;20025;-80
2022/02/26 04:33:49;;;;;;;11.07;5.53;;;3.00;99.90;;;;;;5016275;28;20033;-80
2022/02/26 04:36:15;;;;;;;11.50;5.43;;;3.00;99.90;;;;;;5016287;28;20030;-80
2022/02/26 04:38:42;;;;;;;18.13;5.80;;;3.00;99.90;;;;;;4998781;28;20026;-80
2022/02/26 04:41:08;;;;;;;10.43;6.17;;;2.80;99.90;;;;;;5015880;28;20069;-79
2022/02/26 04:43:36;;;;;;;11.27;5.60;;;2.80;99.90;;;;;;4999072;28;20034;-80
2022/02/26 04:46:02;;;;;;;13.23;6.00;;;2.80;99.90;;;;;;5015493;28;20064;-80
2022/02/26 04:48:28;;;;;;;12.13;5.83;;;2.80;99.90;;;;;;4998790;28;20022;-80
2022/02/26 04:50:54;;;;;;;12.77;6.17;;;2.80;99.90;;;;;;4997961;28;20034;-80
2022/02/26 04:53:19;;;;;;;11.17;6.07;;;2.80;99.90;;;;;;4998689;28;20022;-81
2022/02/26 04:55:45;;;;;;;15.53;6.87;;;2.80;99.90;;;;;;4998840;28;20429;-81
2022/02/26 04:58:11;;;;;;;11.47;6.03;;;2.80;99.90;;;;;;4998159;28;20030;-81
2022/02/26 05:00:37;;;;;;;11.43;6.23;;;2.70;99.90;;;;;;4998238;28;20030;-81
2022/02/26 05:03:04;;;;;;;13.93;7.03;;;2.60;99.90;;;;;;4997851;28;20037;-81
2022/02/26 05:05:30;;;;;;;11.47;6.07;;;2.70;99.90;;;;;;5015475;28;20030;-81
2022/02/26 05:07:56;;;;;;;10.80;6.30;;;2.60;99.90;;;;;;4997958;28;20026;-81
2022/02/26 05:10:22;;;;;;;11.17;6.63;;;2.60;99.90;;;;;;4998077;28;20410;-81
2022/02/26 05:12:47;;;;;;;15.43;6.27;;;2.60;99.90;;;;;;4998237;28;20026;-81
2022/02/26 05:15:13;;;;;;;10.13;6.23;;;2.60;99.90;;;;;;4997718;28;20037;-81
2022/02/26 05:17:41;;;;;;;18.27;6.40;;;2.60;99.90;;;;;;5015536;28;20026;-81
2022/02/26 05:20:09;;;;;;;11.70;6.40;;;2.60;99.90;;;;;;4997461;28;20459;-80
2022/02/26 05:22:38;;;;;;;11.50;6.53;;;2.60;99.90;;;;;;5015409;28;20060;-80
2022/02/26 05:25:05;;;;;;;12.80;6.50;;;2.50;99.90;;;;;;4997296;28;20036;-80
2022/02/26 05:27:31;;;;;;;13.30;7.13;;;2.50;99.90;;;;;;5015744;28;20030;-80
2022/02/26 05:29:56;;;;;;;14.37;7.17;;;2.40;99.90;;;;;;4997575;28;20034;-80
2022/02/26 05:32:22;;;;;;;16.27;7.43;;;2.40;99.90;;;;;;4997907;28;20026;-81
2022/02/26 05:34:51;;;;;;;15.30;7.47;;;2.40;99.90;;;;;;4997993;28;20521;-81
2022/02/26 05:37:17;;;;;;;15.40;7.37;;;2.40;99.90;;;;;;4997028;28;20044;-81
2022/02/26 05:39:43;;;;;;;11.93;6.53;;;2.40;99.90;;;;;;4998020;28;20050;-81
2022/02/26 05:42:09;;;;;;;16.60;7.73;;;2.40;99.90;;;;;;4997199;28;20032;-81
2022/02/26 05:44:35;;;;;;;12.97;6.70;;;2.30;99.90;;;;;;4997613;28;20034;-80
2022/02/26 05:47:01;;;;;;;11.73;6.33;;;2.30;99.90;;;;;;5014692;28;20037;-80
2022/02/26 05:49:26;;;;;;;15.30;7.63;;;2.30;99.90;;;;;;4997368;28;20038;-80
2022/02/26 05:51:52;;;;;;;12.97;6.20;;;2.30;99.90;;;;;;4997579;28;20061;-80
2022/02/26 05:54:18;;;;;;;13.80;6.87;;;2.30;99.90;;;;;;4997163;28;20088;-79
2022/02/26 05:56:43;;;;;;;13.53;7.10;;;2.30;99.90;;;;;;4997290;28;20418;-83
2022/02/26 05:59:09;;;;;;;17.07;7.30;;;2.30;99.90;;;;;;4997218;28;20034;-82
2022/02/26 06:01:35;;;;;;;15.40;7.37;;;2.30;99.90;;;;;;4997803;28;20037;-82
2022/02/26 06:04:00;;;;;;;13.70;7.67;;;2.30;99.90;;;;;;4997085;28;20029;-82
2022/02/26 06:06:26;;;;;;;13.67;7.60;;;2.20;99.90;;;;;;5014739;28;20030;-82
2022/02/26 06:08:52;;;;;;;14.27;8.10;;;2.10;99.90;;;;;;4996857;28;20029;-83
2022/02/26 06:11:19;;;;;;;16.37;8.30;;;2.20;99.90;;;;;;4996873;28;20030;-83
2022/02/26 06:13:45;;;;;;;15.97;8.00;;;2.10;99.90;;;;;;4997359;28;20029;-82
2022/02/26 06:16:11;;;;;;;18.63;8.37;;;2.10;99.90;;;;;;4996962;28;20033;-82
2022/02/26 06:18:37;;;;;;;17.30;9.07;;;2.20;99.90;;;;;;4997466;28;20022;-82
2022/02/26 06:21:03;;;;;;;15.47;8.43;;;2.20;99.90;;;;;;4996639;28;20032;-82
2022/02/26 06:23:28;;;;;;;14.00;8.07;;;2.20;99.90;;;;;;4997199;28;20080;-82
2022/02/26 06:25:54;;;;;;;18.17;8.93;;;2.10;99.90;;;;;;4997081;28;20025;-82
2022/02/26 06:28:20;;;;;;;13.43;8.33;;;2.10;99.90;;;;;;5014235;28;20099;-82
2022/02/26 06:30:45;;;;;;;18.00;9.00;;;2.10;99.90;;;;;;4997180;28;20033;-80
2022/02/26 06:33:13;;;;;;;17.30;9.13;;;2.10;99.90;;;;;;4996498;28;20049;-80
2022/02/26 06:35:40;;;;;;;15.20;8.30;;;2.10;99.90;;;;;;4996988;28;20085;-81
2022/02/26 06:38:06;;;;;;;20.83;9.63;;;2.20;99.90;;;;;;5013454;28;20030;-81
2022/02/26 06:40:32;;;;;;;18.00;9.07;;;2.20;99.90;;;;;;4996973;28;20058;-81
2022/02/26 06:42:58;;;;;;;16.47;8.73;;;2.20;99.90;;;;;;4996697;28;20076;-81
2022/02/26 06:45:24;;;;;;;20.23;8.90;;;2.20;99.90;;;;;;5008764;28;20030;-80
2022/02/26 06:47:50;;;;;;;16.07;8.73;;;2.30;99.90;;;;;;4976883;28;20026;-80
2022/02/26 06:50:16;;;;;;;19.00;9.00;;;2.30;99.90;;;;;;4976586;28;20037;-80
2022/02/26 06:52:41;;;;;;;16.07;9.03;;;2.30;99.90;;;;;;4994155;28;20141;-80
2022/02/26 06:55:07;;;;;;;17.43;8.80;;;2.30;99.90;;;;;;4976794;28;20419;-79
2022/02/26 06:57:33;;;;;;;19.13;9.77;;;2.30;99.90;;;;;;4977119;28;20061;-79
2022/02/26 06:59:59;;;;;;;19.03;9.60;;;2.40;99.90;;;;;;4994085;28;20058;-80
2022/02/26 07:02:24;;;;;;;19.27;9.63;;;2.50;99.90;;;;;;4977293;28;20027;-80
2022/02/26 07:04:50;;;;;;;19.50;10.27;;;2.50;99.90;;;;;;4977219;28;20023;-80
2022/02/26 07:07:16;;;;;;;19.87;9.23;;;2.50;99.90;;;;;;4976538;28;20038;-79
2022/02/26 07:09:42;;;;;;;19.57;9.77;;;2.50;99.90;;;;;;4977061;28;20137;-80
2022/02/26 07:12:09;;;;;;;22.17;10.37;;;2.60;99.90;;;;;;4976709;28;20109;-80
2022/02/26 07:14:35;;;;;;;20.13;9.80;;;2.70;99.90;;;;;;4976930;28;20054;-80
2022/02/26 07:17:01;;;;;;;19.00;9.87;;;2.80;99.90;;;;;;4976438;28;20029;-81
2022/02/26 07:19:26;;;;;;;18.00;9.90;;;2.80;99.90;;;;;;4996773;28;20030;-80
2022/02/26 07:21:52;;;;;;;19.93;9.90;;;2.90;99.90;;;;;;4977032;28;20109;-80
2022/02/26 07:24:18;;;;;;;18.47;10.73;;;2.80;99.90;;;;;;4976153;28;20023;-80
2022/02/26 07:26:43;;;;;;;23.13;11.13;;;2.80;99.90;;;;;;4976907;28;20030;-80
2022/02/26 07:29:09;;;;;;;19.80;9.60;;;2.80;99.90;;;;;;4993665;28;20081;-80
2022/02/26 07:31:35;;;;;;;24.23;9.63;;;2.80;99.90;;;;;;4994249;28;20495;-80
2022/02/26 07:34:01;;;;;;;21.73;10.03;;;2.90;99.90;;;;;;4976391;28;20026;-80
2022/02/26 07:36:26;;;;;;;18.33;10.00;;;3.00;99.90;;;;;;4994302;28;20027;-79
2022/02/26 07:38:52;;;;;;;18.33;9.63;;;3.10;99.90;;;;;;4976839;28;20424;-78
2022/02/26 07:41:18;;;;;;;19.27;9.20;;;3.00;99.90;;;;;;4976397;28;20146;-82
2022/02/26 07:43:43;;;;;;;15.40;9.27;;;3.00;99.90;;;;;;4976882;28;20464;-81
2022/02/26 07:46:09;;;;;;;16.37;8.73;;;3.20;99.90;;;;;;4976666;28;20034;-82
2022/02/26 07:48:35;;;;;;;21.03;9.57;;;3.20;99.90;;;;;;4978531;28;20038;-81
2022/02/26 07:51:01;;;;;;;19.90;9.10;;;3.30;99.90;;;;;;4980006;28;20053;-80
2022/02/26 07:53:27;;;;;;;16.83;9.47;;;3.30;99.90;;;;;;4980255;28;20026;-81
2022/02/26 07:55:52;;;;;;;19.93;8.87;;;3.30;99.90;;;;;;4980290;28;20037;-80
2022/02/26 07:58:20;;;;;;;23.10;11.33;;;3.30;99.90;;;;;;4979727;28;20026;-80
2022/02/26 08:00:45;;;;;;;19.00;9.80;;;3.30;99.90;;;;;;4980149;28;20034;-80
2022/02/26 08:03:11;;;;;;;19.83;9.83;;;3.40;99.90;;;;;;4979752;28;20029;-82
2022/02/26 08:05:37;;;;;;;16.80;8.90;;;3.50;99.90;;;;;;4980287;28;20038;-82
2022/02/26 08:08:03;;;;;;;18.60;9.20;;;3.60;99.90;;;;;;4979698;28;20057;-80
2022/02/26 08:10:29;;;;;;;16.10;9.57;;;3.60;99.90;;;;;;4979836;28;20046;-79
2022/02/26 08:12:56;;;;;;;21.40;10.17;;;3.60;99.90;;;;;;4979955;28;20022;-79
2022/02/26 08:15:24;;;;;;;20.27;9.03;;;3.60;99.90;;;;;;4996584;28;20377;-79
2022/02/26 08:17:49;;;;;;;20.80;9.57;;;3.70;99.90;;;;;;4996913;28;20027;-81
2022/02/26 08:20:17;;;;;;;15.87;8.47;;;3.70;99.90;;;;;;4978565;28;20042;-79
2022/02/26 08:22:43;;;;;;;19.77;9.37;;;3.80;99.90;;;;;;4979361;28;20476;-79
2022/02/26 08:25:10;;;;;;;17.63;9.63;;;3.80;99.90;;;;;;4996344;28;20027;-80
2022/02/26 08:27:37;;;;;;;21.77;9.30;;;3.80;99.90;;;;;;4997150;28;20525;-79
2022/02/26 08:30:08;;;;;;;20.87;9.03;;;4.00;99.90;;;;;;4979701;28;20030;-81
2022/02/26 08:32:34;;;;;;;16.73;8.52;;;4.10;99.90;;;;;;4996976;28;20033;-81
2022/02/26 08:35:00;;;;;;;18.67;8.50;;;4.10;99.90;;;;;;4996651;28;20081;-81
2022/02/26 08:37:25;;;;;;;20.03;7.67;;;4.10;99.90;;;;;;4978638;28;20031;-81
2022/02/26 08:39:51;;;;;;;15.70;7.43;;;4.10;99.90;;;;;;4979058;28;20059;-78
2022/02/26 08:42:17;;;;;;;16.33;8.40;;;4.00;99.90;;;;;;4978750;28;20027;-79
2022/02/26 08:44:42;;;;;;;16.20;7.80;;;4.00;99.90;;;;;;4979027;28;20022;-78
2022/02/26 08:47:08;;;;;;;20.50;7.80;;;4.00;99.90;;;;;;4995670;28;20431;-78
2022/02/26 08:49:34;;;;;;;14.67;6.30;;;4.00;99.90;;;;;;4979321;28;20475;-80
2022/02/26 08:52:01;;;;;;;16.70;6.67;;;4.00;99.90;;;;;;4996357;28;20092;-79
2022/02/26 08:54:26;;;;;;;13.80;7.50;;;4.00;99.90;;;;;;4978488;28;20117;-79
2022/02/26 08:56:52;;;;;;;19.77;8.03;;;3.90;99.90;;;;;;4979192;28;20077;-79
2022/02/26 08:59:18;;;;;;;16.13;6.53;;;4.00;99.90;;;;;;4978145;28;20103;-79
2022/02/26 09:01:44;;;;;;;17.30;6.53;;;4.00;99.90;;;;;;4996032;28;20026;-79
2022/02/26 09:04:09;;;;;;;15.23;6.83;;;4.00;99.90;;;;;;4995918;28;20050;-79
2022/02/26 09:06:36;;;;;;;18.73;7.17;;;4.10;99.90;;;;;;4996007;28;20091;-79
2022/02/26 09:09:04;;;;;;;14.33;6.03;;;4.20;99.90;;;;;;4978713;28;20045;-78
2022/02/26 09:11:30;;;;;;;13.80;5.87;;;4.20;99.90;;;;;;4995480;28;20030;-79
2022/02/26 09:13:56;;;;;;;16.00;5.27;;;4.20;99.90;;;;;;4995864;28;20371;-79
2022/02/26 09:16:21;;;;;;;14.87;4.93;;;4.20;99.90;;;;;;4978354;28;20030;-79
2022/02/26 09:18:47;;;;;;;11.07;5.03;;;4.20;99.90;;;;;;4978941;28;20460;-82
2022/02/26 09:21:13;;;;;;;11.30;4.83;;;4.30;99.90;;;;;;4995573;28;20061;-83
2022/02/26 09:23:39;;;;;;;16.87;5.13;;;4.30;99.90;;;;;;4978844;28;20030;-83
2022/02/26 09:26:06;;;;;;;13.23;5.00;;;4.40;99.90;;;;;;4996075;28;20511;-83
2022/02/26 09:28:39;;;;;;;17.73;5.20;;;4.50;99.90;;;;;;4978513;28;20046;-83
2022/02/26 09:31:04;;;;;;;10.07;4.73;;;4.40;99.90;;;;;;4978660;28;20034;-83
2022/02/26 09:33:30;;;;;;;14.90;5.00;;;4.50;99.90;;;;;;4978229;28;20041;-82
2022/02/26 09:36:00;;;;;;;13.30;4.37;;;4.50;99.90;;;;;;4978517;28;20038;-83
2022/02/26 09:38:27;;;;;;;20.37;4.90;;;4.50;99.90;;;;;;4977894;28;20517;-83
2022/02/26 09:40:55;;;;;;;11.60;4.30;;;4.50;99.90;;;;;;4977591;28;20050;-80
2022/02/26 09:43:22;;;;;;;10.97;3.83;;;4.50;99.90;;;;;;4977891;28;20049;-81
2022/02/26 09:45:49;;;;;;;12.10;4.00;;;4.60;99.90;;;;;;4978480;28;20034;-79
2022/02/26 09:48:15;;;;;;;16.97;4.77;;;4.70;99.90;;;;;;4977864;28;20058;-80
2022/02/26 09:50:40;;;;;;;7.93;3.83;;;4.70;99.90;;;;;;4977770;28;20031;-80
2022/02/26 09:53:08;;;;;;;14.57;3.23;;;4.70;99.90;;;;;;4977938;28;20034;-80
2022/02/26 09:55:34;;;;;;;18.53;3.87;;;4.80;99.90;;;;;;4995218;28;20019;-81
2022/02/26 09:58:00;;;;;;;13.47;3.37;;;4.80;99.90;;;;;;4978010;28;20126;-79
2022/02/26 10:00:26;;;;;;;13.77;3.70;;;4.90;99.90;;;;;;4977287;28;20127;-80
2022/02/26 10:02:52;;;;;;;11.13;2.70;;;5.10;99.90;;;;;;4994870;28;20445;-80
2022/02/26 10:05:20;;;;;;;8.57;2.77;;;5.30;99.90;;;;;;4976924;28;20073;-79
2022/02/26 10:07:49;;;;;;;8.33;3.00;;;5.60;99.90;;;;;;4976995;28;20077;-79
2022/02/26 10:10:22;;;;;;;6.10;2.50;;;5.80;99.90;;;;;;4976730;28;20147;-80
2022/02/26 10:13:00;;;;;;;13.73;2.60;;;6.00;99.90;;;;;;4974553;28;20487;-80
2022/02/26 10:15:29;;;;;;;8.10;1.83;;;6.10;99.90;;;;;;4985430;28;20078;-82
2022/02/26 10:18:09;;;;;;;5.50;1.23;;;6.20;97.50;;;;;;4976993;28;20083;-81
2022/02/26 10:20:43;;;;;;;5.13;1.40;;;6.20;96.00;;;;;;4976249;28;20053;-78
2022/02/26 10:23:12;;;;;;;4.27;1.20;;;6.20;97.10;;;;;;4977109;28;20027;-81
2022/02/26 10:25:38;;;;;;;6.93;1.40;;;6.30;96.00;;;;;;4994346;28;20081;-81
2022/02/26 10:28:04;;;;;;;8.63;1.80;;;6.50;96.70;;;;;;4977174;28;20379;-81
2022/02/26 10:30:34;;;;;;;6.53;1.20;;;6.60;97.30;;;;;;4976468;28;20038;-80
2022/02/26 10:33:17;;;;;;;11.33;2.03;;;6.70;93.30;;;;;;4976932;28;20053;-78
2022/02/26 10:35:54;;;;;;;7.93;1.37;;;6.80;94.10;;;;;;4977412;28;20027;-82
2022/02/26 10:38:38;;;;;;;5.20;1.00;;;6.80;94.30;;;;;;4976195;28;20029;-81
2022/02/26 10:41:12;;;;;;;5.27;0.93;;;6.80;91.00;;;;;;4985048;28;20050;-80
2022/02/26 10:43:55;;;;;;;4.13;1.43;;;6.80;92.00;;;;;;4977163;28;20118;-79
2022/02/26 10:46:30;;;;;;;4.47;0.90;;;6.70;91.90;;;;;;4994047;28;20109;-80
2022/02/26 10:49:01;;;;;;;4.53;1.20;;;6.70;91.40;;;;;;4976961;28;20027;-81
2022/02/26 10:51:33;;;;;;;6.60;1.80;;;6.60;91.80;;;;;;4976816;28;20432;-77
2022/02/26 10:54:02;;;;;;;7.85;1.85;;;6.50;94.10;;;;;;4988177;28;20065;-79
2022/02/26 10:56:37;;;;;;;12.20;1.87;;;6.60;96.00;;;;;;4974913;28;20368;-76
2022/02/26 10:59:05;;;;;;;6.90;1.63;;;6.70;95.90;;;;;;4974745;28;20022;-76
2022/02/26 11:01:31;;;;;;;6.27;2.07;;;6.70;96.10;;;;;;4976929;28;20300;-75
2022/02/26 11:03:57;;;;;;;10.90;2.00;;;6.70;97.20;;;;;;4975591;28;20034;-76
2022/02/26 11:06:24;;;;;;;8.83;2.00;;;6.70;96.60;;;;;;4992733;28;20089;-77
2022/02/26 11:08:51;;;;;;;6.97;1.80;;;6.60;96.40;;;;;;4975477;28;20038;-79
2022/02/26 11:11:18;;;;;;;8.67;1.80;;;6.60;97.00;;;;;;4975824;28;20121;-77
2022/02/26 11:13:45;;;;;;;6.00;1.77;;;6.60;95.80;;;;;;4993700;28;20052;-78
2022/02/26 11:16:12;;;;;;;7.87;2.10;;;6.60;95.60;;;;;;4993366;28;20026;-79
2022/02/26 11:18:43;;;;;;;10.67;1.87;;;6.60;94.20;;;;;;4993482;28;20089;-76
2022/02/26 11:21:12;;;;;;;8.77;1.87;;;6.60;94.50;;;;;;4975581;28;20030;-77
2022/02/26 11:23:38;;;;;;;10.90;2.40;;;6.50;95.10;;;;;;4979230;28;20026;-76
2022/02/26 11:26:09;;;;;;;5.53;1.47;;;6.50;95.00;;;;;;4979159;28;20053;-77
2022/02/26 11:28:41;;;;;;;6.07;1.90;;;6.60;96.00;;;;;;4993289;28;20113;-77
2022/02/26 11:31:11;;;;;;;4.97;1.50;;;6.60;95.80;;;;;;4979643;28;20113;-77
2022/02/26 11:33:38;;;;;;;6.47;1.87;;;6.60;95.90;;;;;;4974523;28;20026;-78
2022/02/26 11:36:05;;;;;;;7.07;2.03;;;6.60;95.30;;;;;;4978796;28;20027;-77
2022/02/26 11:38:36;;;;;;;7.40;1.53;;;6.60;94.70;;;;;;4996411;28;20205;-78
2022/02/26 11:41:23;;;;;;;8.17;1.93;;;6.60;95.10;;;;;;4978906;28;20054;-78
2022/02/26 11:43:57;;;;;;;7.90;2.23;;;6.70;94.90;;;;;;4993985;28;20109;-78
2022/02/26 11:46:33;;;;;;;4.97;1.43;;;6.80;94.70;;;;;;4977555;28;20053;-78
2022/02/26 11:49:12;;;;;;;11.17;1.93;;;6.90;94.80;;;;;;4978689;28;20031;-78
2022/02/26 11:51:43;;;;;;;5.80;1.50;;;6.90;94.50;;;;;;4978829;28;20018;-78
2022/02/26 11:54:14;;;;;;;8.17;1.63;;;7.00;90.50;;;;;;4968969;28;20456;-79
2022/02/26 11:57:00;;;;;;;8.27;1.70;;;6.90;89.30;;;;;;4969071;28;20034;-78
2022/02/26 11:59:41;;;;;;;6.20;1.60;;;7.00;86.00;;;;;;4977808;28;20061;-77
2022/02/26 12:02:12;;;;;;;7.63;1.27;;;7.00;86.00;;;;;;4996032;28;20026;-78
2022/02/26 12:04:54;;;;;;;4.85;1.05;;;7.00;90.40;;;;;;4978054;28;20030;-76
2022/02/26 12:07:31;;;;;;;6.22;1.35;;;7.10;86.80;;;;;;4995961;28;20026;-78
2022/02/26 12:10:02;;;;;;;6.07;1.10;;;7.20;86.10;;;;;;4979586;28;20042;-78
2022/02/26 12:12:37;;;;;;;5.07;1.37;;;7.30;89.30;;;;;;4979396;28;20078;-77
2022/02/26 12:15:13;;;;;;;7.53;1.10;;;7.50;87.80;;;;;;4975881;28;20041;-78
2022/02/26 12:17:44;;;;;;;3.70;1.33;;;7.50;82.90;;;;;;4978892;28;20026;-78
2022/02/26 12:20:15;;;;;;;7.87;1.50;;;7.40;84.00;;;;;;4978370;28;20022;-78
2022/02/26 12:22:49;;;;;;;8.13;1.60;;;7.40;85.60;;;;;;4979157;28;20031;-81
2022/02/26 12:25:16;;;;;;;5.37;1.30;;;7.40;82.80;;;;;;4996041;28;20061;-80
2022/02/26 12:27:43;;;;;;;7.00;1.30;;;7.40;82.40;;;;;;4978576;28;20037;-77
2022/02/26 12:30:10;;;;;;;5.23;1.20;;;7.50;83.60;;;;;;4959426;28;20174;-77
2022/02/26 12:33:14;;;;;;;7.43;1.40;;;7.80;86.90;;;;;;4965885;28;20064;-79
2022/02/26 12:35:40;;;;;;;5.68;1.20;;;7.80;88.10;;;;;;4974364;28;20027;-79
2022/02/26 12:38:26;;;;;;;6.40;1.27;;;8.40;84.40;;;;;;4962463;28;20119;-79
2022/02/26 12:41:31;;;;;;;6.43;1.85;;;8.90;79.70;;;;;;4977995;28;20145;-79
2022/02/26 12:43:58;;;;;;;5.90;1.33;;;9.20;69.40;;;;;;4959739;28;20030;-80
2022/02/26 12:46:27;;;;;;;7.78;1.30;;;9.40;67.50;;;;;;4975720;28;20105;-81
2022/02/26 12:48:55;;;;;;;7.03;1.60;;;9.60;70.30;;;;;;4988518;28;20479;-80
2022/02/26 12:51:23;;;;;;;6.72;1.45;;;9.80;66.00;;;;;;4983936;28;20518;-79
2022/02/26 12:53:49;;;;;;;5.95;1.45;;;10.00;67.90;;;;;;4977643;28;20391;-78